Time;durP1;ratioP1;P1;durP2;ratioP2;P2;SDS_P1;SDS_P2;PMS_P1;PMS_P2;Temp;Humidity;BMP_temperature;BMP_pressure;BME280_temperature;BME280_humidity;BME280_pressure;Samples;Min_cycle;Max_cycle;Signal;HPM_P1;HPM_P2
2022/03/13 00:00:59;;;;;;;22.60;12.60;;;;;;;-0.85;42.33;97655.06;108126;1270;32626;-73
2022/03/13 00:03:32;;;;;;;25.10;13.30;;;;;;;-0.93;42.22;97653.88;108084;1269;29041;-72
2022/03/13 00:06:03;;;;;;;24.50;12.80;;;;;;;-0.94;42.33;97656.80;108105;1268;26613;-72
2022/03/13 00:08:35;;;;;;;25.40;13.80;;;;;;;-0.93;42.42;97656.41;108103;1269;32903;-72
2022/03/13 00:11:08;;;;;;;23.10;13.20;;;;;;;-0.99;42.48;97655.27;108147;1270;36174;-72
2022/03/13 00:13:50;;;;;;;30.30;14.80;;;;;;;-1.06;42.68;97658.73;108238;1270;34281;-72
2022/03/13 00:16:23;;;;;;;31.40;14.90;;;;;;;-1.16;42.86;97656.23;108083;1270;35440;-72
2022/03/13 00:18:59;;;;;;;28.30;15.10;;;;;;;-1.28;43.31;97663.47;108040;1270;34292;-73
2022/03/13 00:21:30;;;;;;;26.90;13.40;;;;;;;-1.41;43.73;97657.45;108083;1270;32118;-72
2022/03/13 00:24:01;;;;;;;24.00;13.60;;;;;;;-1.52;43.65;97652.09;108067;1270;31995;-72
2022/03/13 00:26:34;;;;;;;24.10;14.70;;;;;;;-1.59;43.77;97649.89;108004;1270;35000;-72
2022/03/13 00:29:06;;;;;;;30.50;14.30;;;;;;;-1.66;44.09;97648.54;108095;1268;43714;-72
2022/03/13 00:31:37;;;;;;;25.80;13.00;;;;;;;-1.71;43.99;97645.25;108097;1270;30554;-72
2022/03/13 00:34:08;;;;;;;25.90;13.10;;;;;;;-1.72;44.02;97644.64;108137;1270;37623;-72
2022/03/13 00:36:40;;;;;;;25.20;13.60;;;;;;;-1.68;44.00;97647.15;107999;1270;38955;-72
2022/03/13 00:39:11;;;;;;;22.60;13.20;;;;;;;-1.65;44.15;97644.89;108128;1269;41938;-72
2022/03/13 00:41:42;;;;;;;27.30;13.70;;;;;;;-1.63;44.11;97643.45;108077;1270;38726;-73
2022/03/13 00:44:14;;;;;;;24.50;13.20;;;;;;;-1.62;44.49;97640.37;108106;1268;39864;-73
2022/03/13 00:46:45;;;;;;;24.50;12.80;;;;;;;-1.63;44.51;97638.15;108077;1270;40092;-72
2022/03/13 00:49:16;;;;;;;25.50;12.10;;;;;;;-1.63;44.56;97639.31;108096;1270;35398;-72
2022/03/13 00:51:47;;;;;;;20.00;10.90;;;;;;;-1.65;44.91;97639.08;108064;1270;40910;-72
2022/03/13 00:54:18;;;;;;;22.40;11.70;;;;;;;-1.69;44.88;97639.85;108097;1270;29666;-72
2022/03/13 00:56:49;;;;;;;22.50;11.70;;;;;;;-1.70;45.19;97637.67;108082;1270;33052;-72
2022/03/13 00:59:20;;;;;;;22.80;11.00;;;;;;;-1.72;45.21;97634.31;108078;1270;35233;-72
2022/03/13 01:01:51;;;;;;;20.00;11.30;;;;;;;-1.74;45.16;97628.93;108121;1270;45203;-72
2022/03/13 01:04:22;;;;;;;19.00;10.80;;;;;;;-1.68;44.78;97627.35;108096;1270;29486;-72
2022/03/13 01:06:53;;;;;;;18.40;11.10;;;;;;;-1.59;44.43;97625.09;108114;1270;30801;-72
2022/03/13 01:09:24;;;;;;;21.40;11.30;;;;;;;-1.52;44.48;97627.06;107930;1271;41941;-72
2022/03/13 01:11:55;;;;;;;17.90;10.50;;;;;;;-1.51;44.48;97629.04;108062;1270;40922;-72
2022/03/13 01:14:27;;;;;;;18.60;10.50;;;;;;;-1.48;44.65;97624.23;108080;1270;32834;-72
2022/03/13 01:17:04;;;;;;;18.20;10.20;;;;;;;-1.48;44.40;97622.90;108065;1270;40583;-72
2022/03/13 01:19:37;;;;;;;20.70;9.60;;;;;;;-1.46;44.23;97619.78;107929;1270;33818;-72
2022/03/13 01:22:08;;;;;;;21.60;10.70;;;;;;;-1.41;43.96;97621.45;108043;1270;40954;-72
2022/03/13 01:24:43;;;;;;;21.60;11.60;;;;;;;-1.37;44.05;97619.80;108022;1270;36352;-72
2022/03/13 01:27:16;;;;;;;21.70;10.80;;;;;;;-1.34;43.90;97620.16;108140;1270;27720;-72
2022/03/13 01:29:47;;;;;;;23.90;12.20;;;;;;;-1.35;44.13;97619.55;108112;1270;40942;-72
2022/03/13 01:32:19;;;;;;;23.00;11.90;;;;;;;-1.38;44.06;97616.10;107975;1270;40634;-72
2022/03/13 01:34:54;;;;;;;22.20;11.00;;;;;;;-1.37;44.14;97608.39;108096;1270;42882;-72
2022/03/13 01:37:36;;;;;;;18.90;10.60;;;;;;;-1.34;44.00;97604.03;108039;1270;36467;-72
2022/03/13 01:40:12;;;;;;;19.40;11.00;;;;;;;-1.33;43.75;97598.04;108070;1270;32094;-72
2022/03/13 01:42:44;;;;;;;21.00;11.30;;;;;;;-1.33;43.85;97593.00;108157;1269;44597;-72
2022/03/13 01:45:18;;;;;;;19.40;10.80;;;;;;;-1.33;43.84;97591.73;108068;1270;36836;-72
2022/03/13 01:47:49;;;;;;;20.20;11.70;;;;;;;-1.34;43.82;97594.14;108085;1270;39073;-72
2022/03/13 01:50:20;;;;;;;17.00;9.70;;;;;;;-1.34;43.86;97588.83;108064;1270;44212;-72
2022/03/13 01:52:51;;;;;;;18.90;10.50;;;;;;;-1.37;43.73;97587.55;108053;1270;29844;-72
2022/03/13 01:55:23;;;;;;;21.00;11.30;;;;;;;-1.36;43.52;97584.13;108147;1270;29923;-72
2022/03/13 01:57:54;;;;;;;23.80;11.00;;;;;;;-1.34;43.52;97583.10;108109;1270;53479;-72
2022/03/13 02:00:26;;;;;;;17.00;10.10;;;;;;;-1.35;43.59;97581.77;108124;1270;34653;-72
2022/03/13 02:02:57;;;;;;;16.10;8.80;;;;;;;-1.35;43.44;97576.92;108088;1269;40067;-71
2022/03/13 02:05:36;;;;;;;20.60;10.20;;;;;;;-1.32;43.26;97574.36;108040;1270;39202;-72
2022/03/13 02:08:18;;;;;;;17.40;10.20;;;;;;;-1.33;43.35;97572.94;108078;1270;41850;-72
2022/03/13 02:10:50;;;;;;;23.00;10.80;;;;;;;-1.40;43.34;97566.80;108110;1270;37726;-72
2022/03/13 02:13:22;;;;;;;18.70;10.40;;;;;;;-1.47;43.54;97563.06;108057;1270;43966;-71
2022/03/13 02:15:56;;;;;;;20.50;10.80;;;;;;;-1.51;43.55;97561.06;108053;1270;33332;-72
2022/03/13 02:18:27;;;;;;;16.40;10.40;;;;;;;-1.56;43.72;97559.06;107929;1271;32571;-72
2022/03/13 02:20:58;;;;;;;19.10;10.00;;;;;;;-1.60;43.83;97559.77;108091;1270;41386;-72
2022/03/13 02:23:31;;;;;;;19.80;10.70;;;;;;;-1.65;43.81;97558.26;108115;1270;30303;-72
2022/03/13 02:26:04;;;;;;;16.90;9.70;;;;;;;-1.70;43.91;97556.40;108122;1269;33237;-72
2022/03/13 02:28:37;;;;;;;17.60;9.80;;;;;;;-1.72;43.86;97556.49;108074;1270;31650;-72
2022/03/13 02:31:14;;;;;;;15.60;9.60;;;;;;;-1.75;43.77;97559.25;108105;1270;41653;-72
2022/03/13 02:33:45;;;;;;;20.90;10.30;;;;;;;-1.76;43.87;97559.36;107967;1270;214231;-72
2022/03/13 02:36:41;;;;;;;18.00;10.00;;;;;;;-1.78;44.03;97559.38;108043;1270;42628;-72
2022/03/13 02:39:13;;;;;;;19.80;9.70;;;;;;;-1.82;44.08;97560.50;108142;1270;41355;-72
2022/03/13 02:41:45;;;;;;;15.30;9.10;;;;;;;-1.86;44.27;97557.69;108110;1270;38286;-72
2022/03/13 02:44:18;;;;;;;18.70;10.20;;;;;;;-1.89;44.07;97556.80;108051;1270;53163;-72
2022/03/13 02:46:58;;;;;;;16.60;9.40;;;;;;;-1.91;44.32;97555.11;108163;1270;35760;-72
2022/03/13 02:49:31;;;;;;;17.90;9.20;;;;;;;-1.95;44.40;97555.60;108130;1270;31028;-72
2022/03/13 02:52:05;;;;;;;18.50;9.00;;;;;;;-1.99;44.51;97553.52;107963;1270;30227;-72
2022/03/13 02:54:36;;;;;;;20.00;10.60;;;;;;;-2.03;44.72;97557.30;108007;1270;34245;-71
2022/03/13 02:57:08;;;;;;;18.70;10.40;;;;;;;-2.08;44.85;97558.58;108036;1270;47644;-72
2022/03/13 02:59:38;;;;;;;19.20;11.20;;;;;;;-2.14;45.09;97562.46;108117;1269;52713;-72
2022/03/13 03:02:09;;;;;;;20.90;11.10;;;;;;;-2.18;45.18;97561.11;108062;1270;41271;-71
2022/03/13 03:04:43;;;;;;;20.40;10.10;;;;;;;-2.23;45.25;97567.65;108114;1270;30323;-71
2022/03/13 03:07:14;;;;;;;16.60;10.10;;;;;;;-2.28;45.54;97575.05;108053;1270;32794;-72
2022/03/13 03:09:45;;;;;;;22.30;9.70;;;;;;;-2.34;45.63;97578.63;107965;1270;155065;-72
2022/03/13 03:12:16;;;;;;;19.30;10.10;;;;;;;-2.39;45.76;97582.52;108079;1269;38418;-73
2022/03/13 03:14:47;;;;;;;23.60;12.00;;;;;;;-2.45;46.18;97582.42;108075;1270;45508;-72
2022/03/13 03:17:18;;;;;;;26.40;12.80;;;;;;;-2.50;46.57;97584.12;108050;1270;36493;-72
2022/03/13 03:19:49;;;;;;;24.00;13.10;;;;;;;-2.67;47.00;97589.20;108102;1268;39417;-72
2022/03/13 03:22:20;;;;;;;22.60;11.30;;;;;;;-2.84;47.27;97591.66;107955;1270;37908;-72
2022/03/13 03:24:51;;;;;;;21.10;11.70;;;;;;;-2.92;47.53;97597.89;108042;1270;38179;-72
2022/03/13 03:27:22;;;;;;;24.30;11.40;;;;;;;-2.96;47.57;97592.98;107992;1270;42178;-72
2022/03/13 03:29:53;;;;;;;19.70;11.40;;;;;;;-3.03;47.66;97590.73;108055;1270;38154;-72
2022/03/13 03:32:23;;;;;;;20.50;11.00;;;;;;;-3.06;47.67;97590.63;108075;1270;46396;-72
2022/03/13 03:34:54;;;;;;;20.60;11.00;;;;;;;-3.08;47.88;97584.05;108121;1270;33283;-72
2022/03/13 03:37:26;;;;;;;19.90;9.50;;;;;;;-3.15;47.88;97581.99;108089;1270;32491;-72
2022/03/13 03:39:57;;;;;;;18.00;8.70;;;;;;;-3.23;48.04;97574.48;108058;1270;30527;-73
2022/03/13 03:42:28;;;;;;;17.00;8.90;;;;;;;-3.24;48.29;97573.59;108059;1270;34815;-73
2022/03/13 03:44:58;;;;;;;15.60;8.20;;;;;;;-3.21;48.51;97562.09;107979;1270;40924;-72
2022/03/13 03:47:30;;;;;;;15.50;7.80;;;;;;;-3.25;48.78;97564.52;107967;1270;43720;-73
2022/03/13 03:50:01;;;;;;;12.20;6.60;;;;;;;-3.29;48.54;97566.70;108089;1270;42979;-72
2022/03/13 03:52:32;;;;;;;14.90;7.40;;;;;;;-3.22;48.47;97560.95;108060;1270;38136;-72
2022/03/13 03:55:03;;;;;;;10.90;6.50;;;;;;;-3.19;48.39;97568.95;108072;1270;32778;-72
2022/03/13 03:57:34;;;;;;;14.80;6.80;;;;;;;-3.19;48.84;97569.92;108073;1270;43468;-72
2022/03/13 04:00:08;;;;;;;15.30;7.80;;;;;;;-3.15;48.19;97572.59;108085;1270;51620;-72
2022/03/13 04:02:39;;;;;;;16.90;7.80;;;;;;;-3.06;48.15;97571.47;108206;1270;37394;-72
2022/03/13 04:05:11;;;;;;;17.20;8.20;;;;;;;-2.92;47.63;97568.84;108148;1270;38945;-72
2022/03/13 04:07:42;;;;;;;14.70;7.80;;;;;;;-2.78;47.49;97569.58;108132;1270;39978;-72
2022/03/13 04:10:13;;;;;;;13.10;7.00;;;;;;;-2.70;47.27;97563.23;108093;1270;41380;-73
2022/03/13 04:12:44;;;;;;;15.50;7.80;;;;;;;-2.67;47.02;97561.05;108093;1270;42630;-73
2022/03/13 04:15:14;;;;;;;13.70;7.70;;;;;;;-2.59;47.00;97561.59;108059;1270;45358;-73
2022/03/13 04:17:45;;;;;;;14.00;7.60;;;;;;;-2.61;46.87;97561.05;108097;1270;34829;-73
2022/03/13 04:20:16;;;;;;;15.20;8.40;;;;;;;-2.60;46.65;97563.50;108109;1270;32499;-73
2022/03/13 04:22:47;;;;;;;16.60;8.50;;;;;;;-2.60;46.64;97560.10;108073;1270;39451;-73
2022/03/13 04:25:18;;;;;;;16.40;8.60;;;;;;;-2.62;46.58;97556.67;107946;1270;40918;-72
2022/03/13 04:27:49;;;;;;;16.50;7.40;;;;;;;-2.61;46.37;97552.94;107927;1270;90942;-72
2022/03/13 04:30:21;;;;;;;18.30;9.00;;;;;;;-2.49;46.14;97553.44;107940;1270;33792;-72
2022/03/13 04:32:52;;;;;;;20.00;9.30;;;;;;;-2.40;46.00;97551.59;108087;1270;41220;-72
2022/03/13 04:35:23;;;;;;;20.10;9.40;;;;;;;-2.42;46.03;97551.91;108059;1270;43689;-72
2022/03/13 04:37:54;;;;;;;21.10;10.20;;;;;;;-2.48;46.04;97556.62;108071;1270;45845;-73
2022/03/13 04:40:26;;;;;;;16.20;8.90;;;;;;;-2.51;46.08;97560.77;108106;1270;36818;-72
2022/03/13 04:42:56;;;;;;;17.90;9.50;;;;;;;-2.55;46.22;97560.55;108071;1270;41305;-72
2022/03/13 04:45:27;;;;;;;18.60;9.40;;;;;;;-2.61;46.35;97562.61;108105;1270;40487;-72
2022/03/13 04:47:58;;;;;;;14.80;8.90;;;;;;;-2.64;46.35;97558.96;108069;1270;35873;-72
2022/03/13 04:50:30;;;;;;;14.80;9.10;;;;;;;-2.63;46.22;97564.11;108008;1270;32175;-73
2022/03/13 04:53:15;;;;;;;16.70;9.40;;;;;;;-2.67;46.36;97566.45;108115;1270;36001;-72
2022/03/13 04:55:46;;;;;;;18.70;9.90;;;;;;;-2.76;46.66;97571.02;108078;1270;39063;-72
2022/03/13 04:58:18;;;;;;;22.10;10.50;;;;;;;-2.87;46.83;97570.01;108089;1270;43388;-72
2022/03/13 05:00:49;;;;;;;22.00;10.50;;;;;;;-2.98;47.28;97578.29;108031;1270;46131;-73
2022/03/13 05:03:20;;;;;;;18.10;10.20;;;;;;;-3.08;47.47;97576.88;108104;1271;52802;-72
2022/03/13 05:05:51;;;;;;;19.40;9.70;;;;;;;-3.15;47.74;97572.11;108045;1270;52833;-72
2022/03/13 05:08:23;;;;;;;22.20;11.10;;;;;;;-3.24;48.15;97556.65;108094;1270;37338;-72
2022/03/13 05:10:54;;;;;;;22.30;11.80;;;;;;;-3.37;48.56;97555.33;108116;1270;34824;-72
2022/03/13 05:13:24;;;;;;;19.90;10.50;;;;;;;-3.39;48.77;97558.42;107935;1270;72625;-72
2022/03/13 05:15:56;;;;;;;15.40;8.60;;;;;;;-3.39;49.12;97553.41;108051;1270;42603;-72
2022/03/13 05:18:27;;;;;;;14.70;8.20;;;;;;;-3.34;48.97;97555.61;108051;1270;42000;-72
2022/03/13 05:20:57;;;;;;;29.70;15.50;;;;;;;-3.22;49.32;97558.20;108078;1270;44248;-73
2022/03/13 05:23:29;;;;;;;57.10;29.20;;;;;;;-3.21;49.55;97558.27;107961;1270;42926;-72
2022/03/13 05:25:59;;;;;;;48.70;26.10;;;;;;;-3.15;49.67;97561.70;108089;1270;37303;-73
2022/03/13 05:28:30;;;;;;;21.30;11.50;;;;;;;-3.09;49.89;97557.40;108126;1271;32890;-72
2022/03/13 05:31:01;;;;;;;15.50;8.90;;;;;;;-3.08;49.62;97559.42;108113;1271;35491;-73
2022/03/13 05:33:32;;;;;;;15.40;7.30;;;;;;;-3.03;49.51;97564.66;108088;1271;41568;-72
2022/03/13 05:36:04;;;;;;;16.30;8.50;;;;;;;-2.92;49.25;97569.88;108089;1270;33415;-72
2022/03/13 05:38:36;;;;;;;12.60;7.20;;;;;;;-2.81;49.04;97577.67;108104;1270;30674;-72
2022/03/13 05:41:07;;;;;;;16.40;7.90;;;;;;;-2.76;50.43;97580.73;108067;1270;33444;-72
2022/03/13 05:43:43;;;;;;;15.10;6.60;;;;;;;-2.84;50.85;97581.63;108159;1270;29627;-72
2022/03/13 05:46:14;;;;;;;14.50;6.80;;;;;;;-2.80;52.25;97579.06;108045;1270;35805;-73
2022/03/13 05:48:45;;;;;;;14.00;7.20;;;;;;;-2.76;52.67;97579.33;108104;1271;36434;-72
2022/03/13 05:51:15;;;;;;;18.40;8.10;;;;;;;-2.65;52.17;97577.74;107979;1270;28556;-73
2022/03/13 05:53:46;;;;;;;17.00;8.60;;;;;;;-2.45;50.52;97578.44;108133;1271;27687;-72
2022/03/13 05:56:17;;;;;;;15.30;8.80;;;;;;;-2.23;49.81;97576.18;108083;1270;38780;-72
2022/03/13 05:58:48;;;;;;;17.90;9.60;;;;;;;-2.05;49.53;97575.30;108106;1270;30846;-72
2022/03/13 06:01:19;;;;;;;16.80;8.90;;;;;;;-1.92;49.34;97575.16;107980;1271;32819;-72
2022/03/13 06:03:49;;;;;;;18.00;9.50;;;;;;;-1.77;48.73;97576.59;108068;1271;39078;-72
2022/03/13 06:06:21;;;;;;;18.20;9.40;;;;;;;-1.62;48.50;97583.98;108003;1270;42797;-72
2022/03/13 06:08:52;;;;;;;16.00;8.60;;;;;;;-1.52;48.34;97573.81;108087;1270;46229;-72
2022/03/13 06:11:23;;;;;;;17.80;9.40;;;;;;;-1.42;47.66;97581.45;108113;1270;32685;-72
2022/03/13 06:13:54;;;;;;;17.30;9.30;;;;;;;-1.36;48.00;97587.60;108002;1271;40223;-72
2022/03/13 06:16:25;;;;;;;14.50;8.60;;;;;;;-1.27;47.71;97582.80;108001;1271;32120;-72
2022/03/13 06:18:56;;;;;;;18.00;8.40;;;;;;;-1.18;47.58;97584.96;108136;1270;34453;-72
2022/03/13 06:21:27;;;;;;;14.60;7.70;;;;;;;-1.07;46.87;97586.35;108055;1271;55835;-72
2022/03/13 06:23:58;;;;;;;13.00;7.30;;;;;;;-0.99;46.50;97592.06;108083;1271;35477;-72
2022/03/13 06:26:29;;;;;;;16.70;8.20;;;;;;;-0.94;46.02;97595.54;108037;1270;39514;-72
2022/03/13 06:29:00;;;;;;;15.40;7.80;;;;;;;-0.96;45.92;97593.27;108108;1270;34578;-72
2022/03/13 06:31:31;;;;;;;16.60;8.60;;;;;;;-0.96;46.13;97592.76;108104;1270;52844;-72
2022/03/13 06:34:02;;;;;;;15.90;8.10;;;;;;;-0.92;45.64;97598.16;108124;1271;40202;-72
2022/03/13 06:36:34;;;;;;;17.00;8.90;;;;;;;-0.85;45.61;97594.80;108083;1271;31238;-72
2022/03/13 06:39:05;;;;;;;14.80;8.30;;;;;;;-0.75;45.37;97596.07;108078;1271;58409;-72
2022/03/13 06:41:36;;;;;;;11.10;5.60;;;;;;;-0.65;45.26;97594.13;108097;1271;30490;-72
2022/03/13 06:44:08;;;;;;;14.10;8.10;;;;;;;-0.56;44.38;97593.77;108041;1271;28337;-72
2022/03/13 06:46:39;;;;;;;12.50;6.80;;;;;;;-0.48;44.47;97597.18;107971;1271;42149;-72
2022/03/13 06:49:10;;;;;;;13.50;8.00;;;;;;;-0.45;44.15;97602.19;108023;1271;40823;-72
2022/03/13 06:51:41;;;;;;;12.80;7.00;;;;;;;-0.41;43.95;97604.94;108043;1271;36470;-72
2022/03/13 06:54:13;;;;;;;14.40;7.90;;;;;;;-0.41;43.37;97606.34;108070;1271;32263;-73
2022/03/13 06:56:44;;;;;;;12.20;7.80;;;;;;;-0.39;43.10;97607.80;107997;1271;38105;-72
2022/03/13 06:59:15;;;;;;;14.20;7.90;;;;;;;-0.31;43.29;97610.32;107982;1270;31436;-72
2022/03/13 07:01:47;;;;;;;13.10;7.60;;;;;;;-0.21;43.64;97613.48;108083;1271;32695;-71
2022/03/13 07:04:18;;;;;;;19.80;7.70;;;;;;;-0.11;43.29;97613.77;107995;1271;59789;-71
2022/03/13 07:06:49;;;;;;;15.20;7.30;;;;;;;-0.00;43.26;97616.70;108049;1270;33818;-71
2022/03/13 07:09:20;;;;;;;14.70;7.70;;;;;;;0.07;42.90;97614.78;108056;1271;36078;-71
2022/03/13 07:11:52;;;;;;;11.60;6.00;;;;;;;0.11;42.97;97616.73;108062;1271;41666;-71
2022/03/13 07:14:24;;;;;;;16.80;8.30;;;;;;;0.11;42.81;97613.54;108022;1269;51146;-72
2022/03/13 07:16:55;;;;;;;14.00;7.80;;;;;;;0.13;43.20;97616.55;108147;1270;32927;-72
2022/03/13 07:19:26;;;;;;;14.50;8.10;;;;;;;0.22;43.68;97618.56;108045;1271;34741;-72
2022/03/13 07:21:58;;;;;;;14.80;7.40;;;;;;;0.33;43.48;97617.18;108081;1271;37493;-71
2022/03/13 07:24:29;;;;;;;14.30;8.20;;;;;;;0.42;42.91;97620.90;108022;1271;48484;-71
2022/03/13 07:27:01;;;;;;;16.20;8.00;;;;;;;0.49;42.81;97624.89;108075;1270;31524;-71
2022/03/13 07:29:32;;;;;;;15.70;8.60;;;;;;;0.63;42.84;97622.98;108003;1270;35003;-71
2022/03/13 07:32:03;;;;;;;14.10;7.90;;;;;;;0.77;42.65;97624.16;108060;1271;33894;-71
2022/03/13 07:34:34;;;;;;;15.70;8.40;;;;;;;0.98;42.56;97618.39;108021;1271;34047;-71
2022/03/13 07:37:08;;;;;;;13.80;7.40;;;;;;;1.13;42.53;97620.56;108090;1271;27372;-71
2022/03/13 07:39:43;;;;;;;13.80;7.70;;;;;;;1.28;42.23;97619.66;108152;1270;32172;-71
2022/03/13 07:42:14;;;;;;;13.30;7.90;;;;;;;1.40;41.94;97614.33;107975;1271;61959;-71
2022/03/13 07:44:46;;;;;;;14.20;7.80;;;;;;;1.47;41.35;97613.23;108060;1271;38723;-72
2022/03/13 07:47:17;;;;;;;15.90;7.90;;;;;;;1.46;41.38;97612.02;108026;1271;29877;-72
2022/03/13 07:49:48;;;;;;;11.60;6.80;;;;;;;1.54;41.24;97614.50;107970;1271;32615;-71
2022/03/13 07:52:22;;;;;;;14.40;6.40;;;;;;;1.65;41.41;97614.62;108012;1271;39056;-71
2022/03/13 07:54:53;;;;;;;15.00;7.90;;;;;;;1.70;40.63;97610.42;107885;1270;92232;-71
2022/03/13 07:57:24;;;;;;;15.70;7.50;;;;;;;1.78;40.25;97605.00;107976;1270;31935;-71
2022/03/13 07:59:55;;;;;;;12.90;7.80;;;;;;;1.86;40.39;97607.71;108040;1271;88218;-72
2022/03/13 08:02:26;;;;;;;13.60;7.60;;;;;;;2.06;40.42;97607.27;108017;1270;28270;-72
2022/03/13 08:04:57;;;;;;;15.60;8.90;;;;;;;2.22;40.13;97604.46;108041;1271;31608;-71
2022/03/13 08:07:28;;;;;;;17.30;8.90;;;;;;;2.45;40.22;97603.67;108066;1271;46282;-72
2022/03/13 08:09:59;;;;;;;12.60;8.10;;;;;;;2.70;40.14;97610.83;108049;1271;38989;-71
2022/03/13 08:12:31;;;;;;;14.20;8.30;;;;;;;3.02;40.14;97600.92;107989;1270;36277;-72
2022/03/13 08:15:02;;;;;;;14.50;8.40;;;;;;;3.29;39.89;97603.23;108053;1268;31934;-71
2022/03/13 08:17:33;;;;;;;16.40;8.20;;;;;;;3.58;39.55;97606.66;108050;1271;33771;-71
2022/03/13 08:20:05;;;;;;;13.30;8.30;;;;;;;3.87;39.11;97610.46;108040;1270;33805;-71
2022/03/13 08:22:37;;;;;;;15.90;8.50;;;;;;;4.18;38.92;97609.99;108128;1270;37320;-72
2022/03/13 08:25:10;;;;;;;15.00;8.90;;;;;;;4.47;38.56;97607.88;108114;1270;27074;-72
2022/03/13 08:27:41;;;;;;;15.70;8.70;;;;;;;4.76;38.11;97610.13;108161;1271;35618;-72
2022/03/13 08:30:15;;;;;;;14.10;7.80;;;;;;;5.09;37.70;97608.27;108104;1270;38740;-72
2022/03/13 08:32:46;;;;;;;14.40;7.90;;;;;;;5.59;37.32;97607.17;108170;1270;28249;-72
2022/03/13 08:35:17;;;;;;;13.20;8.10;;;;;;;6.29;36.56;97601.21;108114;1270;29690;-72
2022/03/13 08:37:48;;;;;;;12.50;8.00;;;;;;;6.58;36.24;97599.85;108137;1271;29276;-72
2022/03/13 08:40:20;;;;;;;13.10;7.50;;;;;;;7.23;36.06;97599.20;108128;1270;35283;-72
2022/03/13 08:42:51;;;;;;;12.30;7.10;;;;;;;8.33;34.10;97592.33;108151;1270;33210;-72
2022/03/13 08:45:22;;;;;;;11.50;7.10;;;;;;;8.30;34.05;97592.33;108067;1270;32250;-72
2022/03/13 08:47:53;;;;;;;12.30;7.20;;;;;;;9.40;34.54;97592.27;108068;1270;36922;-72
2022/03/13 08:50:24;;;;;;;13.20;7.60;;;;;;;11.36;33.43;97583.07;108104;1271;35406;-72
2022/03/13 08:52:56;;;;;;;11.90;7.50;;;;;;;12.89;32.08;97583.34;108097;1270;37909;-72
2022/03/13 08:55:27;;;;;;;12.60;7.60;;;;;;;13.46;31.12;97580.62;107982;1270;39131;-72
2022/03/13 08:57:59;;;;;;;11.20;7.90;;;;;;;14.11;29.65;97577.52;108011;1270;33437;-73
2022/03/13 09:00:32;;;;;;;12.50;7.60;;;;;;;14.54;29.48;97574.88;108109;1270;36307;-72
2022/03/13 09:03:05;;;;;;;13.50;7.90;;;;;;;14.75;29.58;97573.73;108023;1270;57063;-72
2022/03/13 09:05:36;;;;;;;13.50;7.80;;;;;;;15.17;28.88;97569.15;108138;1270;35889;-72
2022/03/13 09:08:08;;;;;;;11.80;7.80;;;;;;;15.11;28.40;97568.77;108112;1270;36808;-72
2022/03/13 09:10:40;;;;;;;13.60;8.00;;;;;;;15.34;28.07;97568.19;108135;1270;27361;-72
2022/03/13 09:13:13;;;;;;;11.70;7.60;;;;;;;15.30;28.00;97567.49;108151;1270;31979;-72
2022/03/13 09:15:44;;;;;;;12.70;8.40;;;;;;;14.22;27.65;97569.15;108084;1270;29281;-73
2022/03/13 09:18:15;;;;;;;12.40;7.70;;;;;;;13.43;28.07;97571.73;108052;1270;38978;-72
2022/03/13 09:20:47;;;;;;;13.10;7.50;;;;;;;12.74;27.48;97570.70;107988;1270;31419;-73
2022/03/13 09:23:18;;;;;;;12.50;7.90;;;;;;;11.82;27.63;97569.77;108042;1270;32282;-72
2022/03/13 09:25:50;;;;;;;12.40;7.60;;;;;;;11.57;28.04;97573.31;108123;1268;27843;-73
2022/03/13 09:28:22;;;;;;;12.20;7.10;;;;;;;11.33;27.84;97577.09;108131;1270;29398;-72
2022/03/13 09:30:54;;;;;;;11.70;7.60;;;;;;;10.91;27.63;97581.69;108064;1270;34358;-73
2022/03/13 09:33:27;;;;;;;12.80;7.70;;;;;;;10.26;27.62;97587.19;108144;1268;37785;-73
2022/03/13 09:35:59;;;;;;;12.20;7.20;;;;;;;10.02;28.55;97591.36;108095;1270;40225;-72
2022/03/13 09:38:30;;;;;;;14.30;8.30;;;;;;;9.96;27.81;97586.30;108030;1270;41225;-72
2022/03/13 09:41:02;;;;;;;17.40;9.30;;;;;;;9.85;28.16;97583.08;108058;1270;34578;-72
2022/03/13 09:43:34;;;;;;;16.80;9.50;;;;;;;9.80;28.36;97584.13;108067;1270;38846;-72
2022/03/13 09:46:05;;;;;;;16.90;10.60;;;;;;;10.07;28.76;97580.02;108093;1270;28496;-72
2022/03/13 09:48:37;;;;;;;16.10;9.50;;;;;;;10.50;29.40;97574.67;107968;1270;30354;-73
2022/03/13 09:51:09;;;;;;;17.20;9.80;;;;;;;11.04;29.57;97577.58;108009;1271;27124;-73
2022/03/13 09:53:41;;;;;;;14.60;9.80;;;;;;;11.29;28.63;97571.56;108044;1270;39237;-72
2022/03/13 09:56:13;;;;;;;14.30;8.80;;;;;;;11.35;28.50;97568.81;107964;1271;36717;-73
2022/03/13 09:58:45;;;;;;;17.40;10.20;;;;;;;11.39;28.03;97564.42;108112;1270;32775;-74
2022/03/13 10:01:16;;;;;;;17.80;9.70;;;;;;;11.19;27.65;97566.14;107977;1270;30574;-73
2022/03/13 10:03:49;;;;;;;16.90;11.00;;;;;;;10.87;27.81;97564.90;108029;1270;31328;-73
2022/03/13 10:06:20;;;;;;;17.20;10.70;;;;;;;10.36;28.17;97566.61;108097;1270;38737;-73
2022/03/13 10:08:53;;;;;;;17.40;10.80;;;;;;;10.11;28.51;97566.20;108051;1270;31032;-72
2022/03/13 10:11:35;;;;;;;17.40;11.50;;;;;;;10.12;28.39;97562.45;108111;1270;26205;-73
2022/03/13 10:14:11;;;;;;;16.20;10.80;;;;;;;10.24;28.94;97558.35;107991;1270;31172;-73
2022/03/13 10:16:43;;;;;;;14.60;9.00;;;;;;;10.43;28.96;97557.13;108013;1270;36749;-73
2022/03/13 10:19:20;;;;;;;15.10;9.60;;;;;;;10.05;26.37;97556.15;107954;1270;31891;-74
2022/03/13 10:22:05;;;;;;;16.50;9.70;;;;;;;9.46;26.58;97554.27;108001;1270;31503;-72
2022/03/13 10:24:43;;;;;;;18.10;10.70;;;;;;;9.41;27.55;97554.58;108110;1270;29869;-73
2022/03/13 10:27:18;;;;;;;18.40;10.80;;;;;;;9.67;27.61;97550.79;108024;1270;32757;-74
2022/03/13 10:29:50;;;;;;;17.60;10.20;;;;;;;9.67;27.21;97550.98;108090;1270;29807;-73
2022/03/13 10:32:22;;;;;;;18.50;10.90;;;;;;;9.43;26.36;97550.00;108077;1270;34097;-73
2022/03/13 10:34:58;;;;;;;16.30;9.40;;;;;;;9.20;25.97;97552.37;107960;1270;34783;-73
2022/03/13 10:37:40;;;;;;;19.00;10.40;;;;;;;9.08;26.31;97552.48;107997;1270;38442;-73
2022/03/13 10:40:21;;;;;;;16.00;10.00;;;;;;;9.11;27.52;97544.95;108123;1269;30479;-73
2022/03/13 10:42:54;;;;;;;14.40;8.90;;;;;;;9.39;27.37;97546.73;108074;1270;30455;-73
2022/03/13 10:45:39;;;;;;;16.30;9.20;;;;;;;9.36;26.40;97543.98;108097;1270;33061;-73
2022/03/13 10:48:28;;;;;;;14.20;8.20;;;;;;;9.13;26.55;97543.34;108117;1270;46123;-73
2022/03/13 10:51:01;;;;;;;15.20;9.40;;;;;;;9.46;27.18;97541.98;107943;1270;38372;-74
2022/03/13 10:53:33;;;;;;;14.90;7.90;;;;;;;9.77;27.60;97538.77;108014;1270;36824;-73
2022/03/13 10:56:10;;;;;;;12.50;7.70;;;;;;;9.95;26.77;97534.05;108006;1270;39883;-73
2022/03/13 10:58:45;;;;;;;14.40;6.70;;;;;;;10.02;26.49;97530.64;108140;1269;33965;-73
2022/03/13 11:01:19;;;;;;;12.00;6.30;;;;;;;9.94;24.68;97534.32;108002;1270;40197;-74
2022/03/13 11:03:55;;;;;;;13.70;7.00;;;;;;;9.89;25.22;97533.16;107978;1270;31183;-74
2022/03/13 11:06:28;;;;;;;11.10;6.00;;;;;;;10.00;25.13;97538.45;108037;1270;39545;-73
2022/03/13 11:09:01;;;;;;;11.10;6.40;;;;;;;9.84;24.76;97542.48;107762;1270;337859;-74
2022/03/13 11:11:32;;;;;;;10.90;6.80;;;;;;;9.79;24.78;97536.29;108023;1270;50413;-74
2022/03/13 11:14:05;;;;;;;12.60;6.80;;;;;;;9.84;24.84;97537.66;108077;1270;28699;-74
2022/03/13 11:16:36;;;;;;;12.10;6.70;;;;;;;9.57;23.62;97537.34;107936;1270;39146;-73
2022/03/13 11:19:08;;;;;;;12.50;6.60;;;;;;;9.53;24.60;97534.38;108054;1270;39152;-73
2022/03/13 11:21:40;;;;;;;10.90;5.20;;;;;;;9.75;25.14;97532.64;108136;1270;36099;-74
2022/03/13 11:24:11;;;;;;;9.10;4.80;;;;;;;9.83;24.04;97527.75;108075;1268;50825;-73
2022/03/13 11:26:44;;;;;;;6.70;4.00;;;;;;;9.95;23.39;97524.63;108134;1270;30807;-74
2022/03/13 11:29:15;;;;;;;7.80;4.60;;;;;;;9.81;22.37;97522.48;108026;1270;37453;-73
2022/03/13 11:31:47;;;;;;;9.30;4.30;;;;;;;9.70;22.69;97522.42;108085;1270;42482;-74
2022/03/13 11:34:22;;;;;;;9.50;4.70;;;;;;;9.84;22.96;97515.79;108078;1270;36260;-73
2022/03/13 11:36:54;;;;;;;6.50;3.80;;;;;;;9.75;21.01;97514.80;108088;1270;32780;-74
2022/03/13 11:39:30;;;;;;;7.70;3.50;;;;;;;9.38;19.84;97522.41;108079;1270;32896;-74